Time;durP1;ratioP1;P1;durP2;ratioP2;P2;SDS_P1;SDS_P2;PMS_P1;PMS_P2;Temp;Humidity;BMP_temperature;BMP_pressure;BME280_temperature;BME280_humidity;BME280_pressure;Samples;Min_cycle;Max_cycle;Signal;HPM_P1;HPM_P2
2022/02/12 00:00:32;;;;;;;8.67;5.23;;;4.30;78.40;;;;;;5138926;27;20215;-46
2022/02/12 00:02:58;;;;;;;6.37;5.20;;;4.20;78.30;;;;;;5140148;27;20409;-46
2022/02/12 00:05:25;;;;;;;7.10;5.03;;;4.10;78.30;;;;;;5138739;27;20688;-44
2022/02/12 00:07:54;;;;;;;6.90;5.20;;;4.10;78.40;;;;;;5140500;27;20437;-46
2022/02/12 00:10:21;;;;;;;4.73;4.30;;;4.00;78.40;;;;;;5137854;27;20452;-46
2022/02/12 00:12:47;;;;;;;7.23;5.13;;;4.00;78.50;;;;;;5139820;27;20413;-47
2022/02/12 00:15:12;;;;;;;7.60;5.70;;;3.90;78.40;;;;;;5137749;27;20888;-46
2022/02/12 00:17:38;;;;;;;7.40;5.13;;;3.90;78.40;;;;;;5139530;27;20193;-46
2022/02/12 00:20:05;;;;;;;6.23;5.37;;;3.90;78.40;;;;;;5117873;27;20230;-46
2022/02/12 00:22:31;;;;;;;7.23;4.90;;;3.80;78.30;;;;;;5137666;27;20171;-46
2022/02/12 00:24:57;;;;;;;7.03;5.33;;;3.80;78.30;;;;;;5136226;27;20431;-46
2022/02/12 00:27:23;;;;;;;5.57;5.00;;;3.70;78.20;;;;;;5119557;27;20175;-46
2022/02/12 00:29:48;;;;;;;7.50;5.60;;;3.70;78.20;;;;;;5137808;27;20179;-46
2022/02/12 00:32:14;;;;;;;6.70;5.80;;;3.60;78.20;;;;;;5138171;27;20263;-46
2022/02/12 00:34:41;;;;;;;10.60;5.90;;;3.60;78.30;;;;;;5139405;27;20203;-46
2022/02/12 00:37:07;;;;;;;7.10;5.53;;;3.60;78.40;;;;;;5137302;27;20489;-46
2022/02/12 00:39:32;;;;;;;8.57;5.43;;;3.50;78.40;;;;;;5136927;27;20225;-46
2022/02/12 00:41:58;;;;;;;7.80;7.10;;;3.50;78.40;;;;;;5136034;27;20472;-45
2022/02/12 00:44:24;;;;;;;9.93;5.37;;;3.40;78.50;;;;;;5137795;27;20179;-46
2022/02/12 00:46:53;;;;;;;7.37;5.33;;;3.40;78.60;;;;;;5136672;27;20171;-46
2022/02/12 00:49:19;;;;;;;7.10;5.40;;;3.40;78.70;;;;;;5138047;27;20604;-46
2022/02/12 00:51:45;;;;;;;8.53;6.20;;;3.40;78.80;;;;;;5136485;27;20535;-46
2022/02/12 00:54:10;;;;;;;6.90;6.03;;;3.30;78.90;;;;;;5138517;27;20194;-45
2022/02/12 00:56:36;;;;;;;7.43;5.83;;;3.30;79.10;;;;;;5138034;27;20433;-46
2022/02/12 00:59:03;;;;;;;7.50;6.50;;;3.30;79.30;;;;;;5138682;27;20258;-45
2022/02/12 01:01:28;;;;;;;6.87;4.87;;;3.30;79.30;;;;;;5137307;27;20589;-46
2022/02/12 01:03:54;;;;;;;7.37;5.63;;;3.30;79.50;;;;;;5138774;27;20432;-46
2022/02/12 01:06:20;;;;;;;6.07;5.47;;;3.20;79.40;;;;;;5136392;27;20596;-46
2022/02/12 01:08:46;;;;;;;15.70;6.70;;;3.20;79.50;;;;;;5138578;27;20561;-44
2022/02/12 01:11:13;;;;;;;8.70;6.10;;;3.20;79.60;;;;;;5137358;27;20425;-44
2022/02/12 01:13:39;;;;;;;8.93;5.67;;;3.20;79.60;;;;;;5138724;27;20180;-44
2022/02/12 01:16:05;;;;;;;7.07;6.20;;;3.10;79.60;;;;;;5136937;27;20429;-44
2022/02/12 01:18:31;;;;;;;8.37;6.63;;;3.10;79.70;;;;;;5139286;27;20428;-44
2022/02/12 01:20:57;;;;;;;6.40;5.53;;;3.10;79.70;;;;;;5138112;27;20759;-45
2022/02/12 01:23:22;;;;;;;15.67;9.33;;;3.10;79.80;;;;;;5139728;28;20235;-44
2022/02/12 01:25:50;;;;;;;7.90;6.73;;;3.00;79.80;;;;;;5138836;27;20193;-44
2022/02/12 01:28:16;;;;;;;9.40;6.83;;;3.00;79.80;;;;;;5120562;28;20570;-46
2022/02/12 01:30:43;;;;;;;7.97;6.10;;;3.00;79.80;;;;;;5121639;28;20413;-46
2022/02/12 01:33:09;;;;;;;10.17;7.13;;;3.00;79.80;;;;;;5136357;27;20448;-44
2022/02/12 01:35:34;;;;;;;7.47;6.77;;;2.90;79.70;;;;;;5137951;27;20521;-45
2022/02/12 01:38:00;;;;;;;8.13;6.00;;;2.90;79.70;;;;;;5134694;28;20476;-45
2022/02/12 01:40:27;;;;;;;11.20;6.77;;;2.90;79.80;;;;;;5118882;28;20223;-45
2022/02/12 01:42:53;;;;;;;9.97;6.97;;;2.90;80.00;;;;;;5134092;27;20187;-44
2022/02/12 01:45:18;;;;;;;8.83;7.90;;;2.80;79.90;;;;;;5136023;28;20405;-45
2022/02/12 01:47:44;;;;;;;11.07;6.80;;;2.80;80.10;;;;;;5134970;28;20428;-44
2022/02/12 01:50:11;;;;;;;12.60;8.13;;;2.80;80.20;;;;;;5137534;27;20236;-45
2022/02/12 01:52:37;;;;;;;8.53;7.40;;;2.80;80.20;;;;;;5135447;27;20708;-44
2022/02/12 01:55:05;;;;;;;8.97;6.80;;;2.70;80.10;;;;;;5118633;28;20412;-44
2022/02/12 01:57:31;;;;;;;7.63;6.77;;;2.70;80.10;;;;;;5118363;28;20443;-45
2022/02/12 01:59:58;;;;;;;8.40;7.40;;;2.70;80.10;;;;;;5138062;27;20421;-45
2022/02/12 02:02:24;;;;;;;9.90;8.00;;;2.70;80.10;;;;;;5138176;27;20471;-45
2022/02/12 02:04:51;;;;;;;9.47;7.73;;;2.60;80.00;;;;;;5139042;27;20421;-45
2022/02/12 02:07:17;;;;;;;9.47;7.87;;;2.60;80.00;;;;;;5137817;27;20420;-45
2022/02/12 02:09:43;;;;;;;12.17;7.83;;;2.60;79.90;;;;;;5142728;27;20428;-44
2022/02/12 02:12:09;;;;;;;9.80;8.00;;;2.60;80.00;;;;;;5140872;27;21695;-44
2022/02/12 02:14:39;;;;;;;8.60;7.70;;;2.50;79.90;;;;;;5142499;27;20523;-45
2022/02/12 02:17:06;;;;;;;9.60;7.77;;;2.50;79.90;;;;;;5141050;27;20413;-44
2022/02/12 02:19:32;;;;;;;10.70;7.73;;;2.50;79.90;;;;;;5142723;27;20417;-45
2022/02/12 02:21:59;;;;;;;8.50;7.60;;;2.50;80.00;;;;;;5141199;27;20738;-45
2022/02/12 02:24:26;;;;;;;11.60;7.50;;;2.40;80.40;;;;;;5142656;27;20536;-45
2022/02/12 02:27:01;;;;;;;8.97;7.83;;;2.40;79.70;;;;;;5141991;27;20409;-45
2022/02/12 02:29:27;;;;;;;8.93;8.03;;;2.40;79.80;;;;;;5143146;27;20413;-45
2022/02/12 02:31:53;;;;;;;11.10;8.40;;;2.30;79.70;;;;;;5141747;27;20558;-45
2022/02/12 02:34:18;;;;;;;11.10;8.73;;;2.30;79.80;;;;;;5142446;27;20473;-45
2022/02/12 02:36:44;;;;;;;10.70;8.30;;;2.30;79.90;;;;;;5140990;27;20183;-45
2022/02/12 02:39:10;;;;;;;10.53;9.07;;;2.20;79.80;;;;;;5140087;27;20176;-45
2022/02/12 02:41:35;;;;;;;11.77;8.37;;;2.30;80.00;;;;;;5141762;27;20286;-45
2022/02/12 02:44:01;;;;;;;9.70;8.33;;;2.20;79.90;;;;;;5139526;27;20183;-45
2022/02/12 02:46:26;;;;;;;10.97;8.67;;;2.20;79.90;;;;;;5140832;27;20193;-45
2022/02/12 02:48:52;;;;;;;10.60;7.50;;;2.20;80.00;;;;;;5139751;27;20236;-45
2022/02/12 02:56:46;;;;;;;10.77;8.87;;;2.10;79.60;;;;;;5141070;27;20411;-44
2022/02/12 02:59:11;;;;;;;9.67;8.37;;;2.10;80.30;;;;;;5140363;27;20421;-45
2022/02/12 03:01:38;;;;;;;9.03;7.63;;;2.00;79.60;;;;;;5141134;27;20261;-44
2022/02/12 03:04:04;;;;;;;11.83;8.93;;;2.00;79.60;;;;;;5140025;27;20193;-45
2022/02/12 03:06:30;;;;;;;9.73;8.10;;;2.00;79.70;;;;;;5141228;27;20417;-45
2022/02/12 03:08:57;;;;;;;11.57;8.80;;;2.00;79.80;;;;;;5137739;27;20409;-44
2022/02/12 03:11:23;;;;;;;9.43;8.53;;;2.00;79.90;;;;;;5139600;27;20210;-44
2022/02/12 03:13:50;;;;;;;10.23;7.97;;;2.00;79.90;;;;;;5139507;27;20425;-44
2022/02/12 03:16:16;;;;;;;11.83;9.90;;;1.90;79.80;;;;;;5139316;27;20828;-45
2022/02/12 03:18:47;;;;;;;10.07;8.40;;;1.90;79.80;;;;;;5133899;27;20560;-44
2022/02/12 03:21:13;;;;;;;10.40;8.70;;;1.90;79.80;;;;;;5138804;27;20823;-45
2022/02/12 03:23:40;;;;;;;11.33;8.87;;;1.90;79.80;;;;;;5139669;27;20511;-44
2022/02/12 03:26:06;;;;;;;10.67;8.97;;;1.90;79.90;;;;;;5139969;27;20508;-44
2022/02/12 03:28:32;;;;;;;13.43;10.33;;;1.80;79.80;;;;;;5139997;27;20424;-44
2022/02/12 03:30:57;;;;;;;11.17;8.00;;;1.80;79.80;;;;;;5119710;27;20878;-44
2022/02/12 03:33:23;;;;;;;11.30;9.00;;;1.80;79.80;;;;;;5139221;27;20482;-45
2022/02/12 03:35:49;;;;;;;11.67;9.10;;;1.80;79.80;;;;;;5121263;27;20190;-55
2022/02/12 03:38:21;;;;;;;13.67;9.33;;;1.70;79.70;;;;;;5140147;27;20194;-45
2022/02/12 03:40:49;;;;;;;11.50;8.90;;;1.70;79.70;;;;;;5140066;27;20639;-45
2022/02/12 03:43:15;;;;;;;9.73;8.73;;;1.70;79.60;;;;;;5140145;27;20417;-45
2022/02/12 03:45:42;;;;;;;10.20;8.97;;;1.70;79.60;;;;;;5139606;27;20409;-44
2022/02/12 03:48:08;;;;;;;11.80;9.50;;;1.70;79.40;;;;;;5122333;27;20582;-44
2022/02/12 03:50:34;;;;;;;10.57;8.70;;;1.60;79.30;;;;;;5140177;27;20559;-44
2022/02/12 03:53:01;;;;;;;11.13;9.27;;;1.60;79.30;;;;;;5138884;27;20596;-44
2022/02/12 03:55:27;;;;;;;11.07;9.00;;;1.60;79.30;;;;;;5139855;27;20414;-45
2022/02/12 03:57:54;;;;;;;15.33;9.90;;;1.60;80.20;;;;;;5139071;27;20821;-44
2022/02/12 04:00:20;;;;;;;9.43;8.43;;;1.60;79.60;;;;;;5138793;27;20533;-45
2022/02/12 04:02:46;;;;;;;15.50;8.77;;;1.60;79.60;;;;;;5139813;27;20799;-45
2022/02/12 04:05:16;;;;;;;11.23;8.07;;;1.50;79.50;;;;;;5139926;27;20424;-44
2022/02/12 04:07:43;;;;;;;10.53;8.60;;;1.50;79.50;;;;;;5138658;27;20458;-44
2022/02/12 04:10:13;;;;;;;11.90;8.90;;;1.50;79.50;;;;;;5139029;27;20413;-44
2022/02/12 04:12:39;;;;;;;12.03;8.73;;;1.40;79.30;;;;;;5140206;27;20423;-44
2022/02/12 04:15:05;;;;;;;11.50;8.43;;;1.40;79.30;;;;;;5121565;27;20500;-45
2022/02/12 04:17:34;;;;;;;10.47;9.30;;;1.40;79.30;;;;;;5139995;27;20478;-44
2022/02/12 04:20:02;;;;;;;10.90;8.97;;;1.40;79.30;;;;;;5139396;27;20811;-45
2022/02/12 04:22:33;;;;;;;14.23;8.87;;;1.40;79.30;;;;;;5138702;27;20508;-45
2022/02/12 04:24:59;;;;;;;12.90;8.80;;;1.30;79.10;;;;;;5121454;27;20417;-44
2022/02/12 04:27:25;;;;;;;12.10;8.20;;;1.30;79.10;;;;;;5139441;27;20413;-45
2022/02/12 04:29:51;;;;;;;10.10;8.43;;;1.30;79.00;;;;;;5138920;27;20462;-45
2022/02/12 04:32:17;;;;;;;9.53;8.00;;;1.30;79.10;;;;;;5139045;27;20740;-45
2022/02/12 04:34:43;;;;;;;9.80;8.83;;;1.30;79.20;;;;;;5139590;27;20168;-44
2022/02/12 04:37:08;;;;;;;10.40;8.27;;;1.30;79.30;;;;;;5139770;27;20447;-45
2022/02/12 04:39:34;;;;;;;9.97;8.73;;;1.20;79.20;;;;;;5138309;27;20182;-44
2022/02/12 04:42:00;;;;;;;11.47;8.13;;;1.20;79.20;;;;;;5138707;27;20179;-45
2022/02/12 04:44:25;;;;;;;9.67;8.07;;;1.20;79.20;;;;;;5139056;27;20248;-44
2022/02/12 04:46:51;;;;;;;16.90;9.10;;;1.20;79.30;;;;;;5138828;27;20176;-44
2022/02/12 04:49:17;;;;;;;11.93;8.80;;;1.20;79.40;;;;;;5137993;27;20503;-46
2022/02/12 04:51:42;;;;;;;9.83;8.20;;;1.10;79.30;;;;;;5139168;27;20207;-45
2022/02/12 04:54:08;;;;;;;9.17;6.93;;;1.10;79.30;;;;;;5138554;27;20457;-45
2022/02/12 04:56:34;;;;;;;9.57;7.60;;;1.10;79.30;;;;;;5139214;27;20507;-44
2022/02/12 04:59:00;;;;;;;14.13;8.40;;;1.10;79.40;;;;;;5138729;27;20584;-44
2022/02/12 05:01:26;;;;;;;12.47;8.03;;;1.10;79.40;;;;;;5119108;27;20429;-44
2022/02/12 05:03:52;;;;;;;8.63;7.80;;;1.00;79.40;;;;;;5119141;27;20171;-47
2022/02/12 05:06:19;;;;;;;11.30;8.13;;;1.00;79.50;;;;;;5139172;27;20252;-48
2022/02/12 05:08:46;;;;;;;12.00;8.53;;;1.10;79.60;;;;;;5138804;27;20436;-47
2022/02/12 05:11:12;;;;;;;11.33;8.27;;;1.10;79.60;;;;;;5139052;27;20863;-48
2022/02/12 05:13:37;;;;;;;14.63;9.13;;;1.10;79.50;;;;;;5138619;27;20428;-47
2022/02/12 05:16:04;;;;;;;8.47;7.50;;;1.10;79.40;;;;;;5139366;27;20413;-47
2022/02/12 05:18:29;;;;;;;13.60;7.90;;;1.10;79.20;;;;;;5138753;27;20238;-47
2022/02/12 05:20:56;;;;;;;9.87;7.47;;;1.10;79.30;;;;;;5119119;28;20859;-48
2022/02/12 05:23:22;;;;;;;14.23;7.50;;;1.10;79.50;;;;;;5137562;28;20439;-48
2022/02/12 05:25:48;;;;;;;8.87;7.40;;;1.10;79.80;;;;;;5138468;28;20443;-47
2022/02/12 05:28:13;;;;;;;15.77;7.87;;;1.10;80.20;;;;;;5119730;28;20248;-48
2022/02/12 05:30:41;;;;;;;7.97;7.13;;;1.20;80.80;;;;;;5138058;28;20510;-48
2022/02/12 05:33:07;;;;;;;10.70;8.00;;;1.20;81.00;;;;;;5138310;28;20182;-47
2022/02/12 05:35:32;;;;;;;10.00;6.97;;;1.20;81.40;;;;;;5137355;28;20405;-46
2022/02/12 05:37:58;;;;;;;9.70;7.30;;;1.20;81.70;;;;;;5135935;28;20413;-47
2022/02/12 05:40:24;;;;;;;10.30;8.60;;;1.20;82.00;;;;;;5134766;28;20237;-42
2022/02/12 05:42:49;;;;;;;15.10;8.60;;;1.20;82.00;;;;;;5134443;27;20629;-42
2022/02/12 05:45:15;;;;;;;11.03;7.83;;;1.20;81.70;;;;;;5137836;27;20530;-42
2022/02/12 05:47:41;;;;;;;9.80;7.10;;;1.20;81.40;;;;;;5120053;27;20171;-43
2022/02/12 05:50:08;;;;;;;8.97;7.33;;;1.20;81.00;;;;;;5137719;27;20478;-45
2022/02/12 05:52:34;;;;;;;13.77;8.43;;;1.20;81.00;;;;;;5139271;27;20405;-42
2022/02/12 05:54:59;;;;;;;11.33;8.60;;;1.10;80.80;;;;;;5140385;27;20707;-42
2022/02/12 05:57:25;;;;;;;8.93;8.03;;;1.10;80.60;;;;;;5141856;27;20172;-41
2022/02/12 05:59:51;;;;;;;13.83;9.17;;;1.10;80.60;;;;;;5142253;27;20177;-42
2022/02/12 06:02:16;;;;;;;10.27;8.50;;;1.10;80.70;;;;;;5142119;27;20635;-41
2022/02/12 06:04:42;;;;;;;9.87;8.77;;;1.10;80.60;;;;;;5141574;27;20186;-42
2022/02/12 06:07:08;;;;;;;13.90;8.80;;;1.00;80.40;;;;;;5141286;27;20180;-41
2022/02/12 06:09:33;;;;;;;8.97;8.00;;;1.00;80.40;;;;;;5142328;27;20274;-42
2022/02/12 06:11:59;;;;;;;11.93;9.20;;;1.00;80.50;;;;;;5142112;27;20207;-42
2022/02/12 06:14:24;;;;;;;11.10;9.40;;;1.00;80.60;;;;;;5139864;27;20181;-42
2022/02/12 06:16:54;;;;;;;11.90;9.50;;;1.00;80.50;;;;;;5140627;27;20218;-42
2022/02/12 06:19:20;;;;;;;15.10;10.43;;;0.90;80.30;;;;;;5141664;27;20215;-42
2022/02/12 06:21:45;;;;;;;13.27;10.37;;;0.90;80.20;;;;;;5140818;27;20794;-41
2022/02/12 06:24:12;;;;;;;15.37;9.80;;;0.90;80.20;;;;;;5140564;27;20232;-42
2022/02/12 06:26:40;;;;;;;13.80;8.93;;;0.90;80.30;;;;;;5139961;27;20180;-43
2022/02/12 06:29:05;;;;;;;12.40;9.70;;;0.90;80.50;;;;;;5139355;27;20702;-43
2022/02/12 06:31:31;;;;;;;14.30;8.93;;;0.90;80.80;;;;;;5119804;27;20517;-42
2022/02/12 06:33:56;;;;;;;12.73;8.87;;;0.90;81.20;;;;;;5137484;27;20176;-41
2022/02/12 06:36:22;;;;;;;11.67;8.33;;;0.90;81.40;;;;;;5137503;27;20176;-41
2022/02/12 06:38:48;;;;;;;14.23;8.57;;;0.90;81.50;;;;;;5137448;27;20175;-41
2022/02/12 06:41:13;;;;;;;11.90;8.83;;;1.00;81.80;;;;;;5137773;27;20275;-42
2022/02/12 06:43:39;;;;;;;13.77;7.80;;;1.00;82.10;;;;;;5138827;27;20636;-41
2022/02/12 06:46:04;;;;;;;13.83;8.30;;;1.00;82.20;;;;;;5141105;27;20176;-42
2022/02/12 06:48:31;;;;;;;10.10;8.13;;;1.00;82.40;;;;;;5140938;27;20449;-41
2022/02/12 06:50:57;;;;;;;11.20;8.23;;;1.10;82.80;;;;;;5139928;27;20318;-41
2022/02/12 06:53:22;;;;;;;12.80;7.97;;;1.10;83.00;;;;;;5140856;27;20508;-42
2022/02/12 06:55:48;;;;;;;12.43;7.80;;;1.10;83.20;;;;;;5140551;27;20636;-43
2022/02/12 06:58:14;;;;;;;10.13;7.60;;;1.20;83.40;;;;;;5139440;27;20172;-43
2022/02/12 07:00:39;;;;;;;11.57;8.43;;;1.20;83.60;;;;;;5139980;27;20184;-41
2022/02/12 07:03:05;;;;;;;10.97;8.17;;;1.30;84.00;;;;;;5139285;27;20220;-40
2022/02/12 07:05:30;;;;;;;10.73;7.60;;;1.40;83.40;;;;;;5140055;27;20175;-41
2022/02/12 07:07:56;;;;;;;11.40;8.57;;;1.60;82.80;;;;;;5139028;27;20176;-42
2022/02/12 07:10:22;;;;;;;12.73;9.23;;;1.70;82.30;;;;;;5139579;27;20214;-42
2022/02/12 07:12:48;;;;;;;11.10;8.80;;;1.80;82.00;;;;;;5140576;27;20834;-41
2022/02/12 07:15:13;;;;;;;11.93;8.87;;;1.90;81.70;;;;;;5140871;27;20465;-41
2022/02/12 07:17:39;;;;;;;10.77;8.60;;;2.10;81.50;;;;;;5140373;27;20563;-42
2022/02/12 07:20:09;;;;;;;11.47;8.60;;;2.30;81.20;;;;;;5140455;27;20200;-42
2022/02/12 07:22:35;;;;;;;12.60;8.83;;;2.50;80.80;;;;;;5139268;27;20236;-41
2022/02/12 07:25:01;;;;;;;11.80;8.80;;;2.70;80.40;;;;;;5121357;27;20417;-40
2022/02/12 07:27:27;;;;;;;8.80;6.73;;;3.00;80.30;;;;;;5138943;27;20811;-41
2022/02/12 07:29:53;;;;;;;13.37;8.20;;;3.30;79.90;;;;;;5138627;27;20527;-40
2022/02/12 07:32:18;;;;;;;9.33;7.60;;;3.60;79.60;;;;;;5137897;27;20571;-41
2022/02/12 07:34:44;;;;;;;9.83;7.27;;;3.80;79.10;;;;;;5134456;27;20188;-41
2022/02/12 07:37:10;;;;;;;11.60;8.43;;;4.10;78.70;;;;;;5128723;27;20187;-42
2022/02/12 07:39:35;;;;;;;9.47;7.90;;;4.40;78.10;;;;;;5117847;28;20176;-43
2022/02/12 07:42:01;;;;;;;8.60;7.60;;;4.60;77.60;;;;;;5119015;28;20187;-42
2022/02/12 07:44:27;;;;;;;12.70;8.17;;;4.80;77.20;;;;;;5119426;28;20184;-42
2022/02/12 07:46:52;;;;;;;13.57;7.60;;;5.10;77.00;;;;;;5138799;27;20192;-41
2022/02/12 07:49:18;;;;;;;9.70;7.13;;;5.30;76.80;;;;;;5122109;27;20219;-40
2022/02/12 07:51:44;;;;;;;8.93;7.30;;;5.60;76.70;;;;;;5140141;27;20211;-41
2022/02/12 07:54:10;;;;;;;10.20;7.00;;;5.80;76.50;;;;;;5139747;27;20497;-43
2022/02/12 07:56:35;;;;;;;12.40;6.80;;;6.10;76.20;;;;;;5139769;27;20179;-41
2022/02/12 07:59:01;;;;;;;7.10;6.40;;;6.40;75.90;;;;;;5138984;27;20421;-42
2022/02/12 08:01:27;;;;;;;12.10;7.80;;;6.70;75.60;;;;;;5139635;27;20179;-42
2022/02/12 08:03:54;;;;;;;9.73;6.67;;;7.00;75.10;;;;;;5137086;27;20421;-42
2022/02/12 08:09:04;;;;;;;10.80;6.90;;;7.60;80.90;;;;;;5118261;28;20440;-42
2022/02/12 08:11:30;;;;;;;10.10;7.03;;;8.30;86.80;;;;;;5118577;28;20883;-43
2022/02/12 08:13:56;;;;;;;7.37;5.70;;;8.70;82.10;;;;;;5118216;28;20172;-44
2022/02/12 08:16:22;;;;;;;7.33;6.10;;;9.00;77.90;;;;;;5117138;28;20525;-42
2022/02/12 08:18:48;;;;;;;8.53;5.23;;;9.30;74.90;;;;;;5117056;28;20302;-44
2022/02/12 08:21:14;;;;;;;9.33;5.97;;;9.60;72.40;;;;;;5116878;28;20442;-42
2022/02/12 08:23:39;;;;;;;10.30;7.13;;;9.80;69.70;;;;;;5114889;28;20246;-43
2022/02/12 08:26:05;;;;;;;11.50;6.23;;;10.00;66.10;;;;;;5116109;28;20515;-43
2022/02/12 08:28:31;;;;;;;7.80;4.90;;;10.30;64.50;;;;;;5115375;28;20283;-45
2022/02/12 08:30:56;;;;;;;9.43;5.57;;;10.60;63.30;;;;;;5116111;28;20764;-42
2022/02/12 08:33:22;;;;;;;6.83;5.93;;;10.90;61.70;;;;;;5115911;28;20210;-44
2022/02/12 08:35:48;;;;;;;5.77;5.27;;;11.20;60.70;;;;;;5116070;28;20558;-43
2022/02/12 08:38:13;;;;;;;7.70;5.63;;;11.50;59.70;;;;;;5117357;28;20169;-43
2022/02/12 08:40:39;;;;;;;7.27;5.80;;;11.90;59.00;;;;;;5120046;27;20189;-44
2022/02/12 08:43:06;;;;;;;7.63;4.70;;;12.10;57.70;;;;;;5117677;28;20243;-44
2022/02/12 08:45:32;;;;;;;6.30;5.70;;;12.50;57.30;;;;;;5118333;28;20432;-42
2022/02/12 08:47:57;;;;;;;7.17;5.10;;;12.80;56.50;;;;;;5117468;28;20417;-43
2022/02/12 08:50:23;;;;;;;7.80;5.70;;;13.20;55.60;;;;;;5117108;28;20235;-44
2022/02/12 08:52:48;;;;;;;7.00;5.63;;;13.60;54.50;;;;;;5115367;28;20477;-43
2022/02/12 08:55:14;;;;;;;7.00;5.20;;;14.00;53.60;;;;;;5097067;28;20176;-42
2022/02/12 08:57:41;;;;;;;6.77;4.50;;;14.40;52.60;;;;;;5116823;28;20265;-43
2022/02/12 09:00:09;;;;;;;6.63;5.87;;;14.70;51.40;;;;;;5115647;28;20192;-42
2022/02/12 09:02:35;;;;;;;10.50;5.77;;;15.00;50.10;;;;;;5114556;28;20413;-44
2022/02/12 09:05:02;;;;;;;6.57;4.60;;;15.40;48.80;;;;;;5115340;28;20515;-45
2022/02/12 09:07:27;;;;;;;8.67;5.13;;;15.70;47.90;;;;;;5126543;27;20191;-42
2022/02/12 09:09:54;;;;;;;6.03;4.40;;;16.00;46.70;;;;;;5119619;27;20429;-44
2022/02/12 09:12:21;;;;;;;7.00;4.37;;;16.30;46.00;;;;;;5121279;27;20246;-42
2022/02/12 09:14:46;;;;;;;6.70;4.60;;;16.60;45.10;;;;;;5137482;27;20432;-44
2022/02/12 09:17:12;;;;;;;10.30;4.80;;;16.70;43.70;;;;;;5119044;28;20440;-42
2022/02/12 09:19:38;;;;;;;8.30;4.30;;;16.90;43.00;;;;;;5134560;27;20239;-42
2022/02/12 09:22:03;;;;;;;10.77;5.03;;;17.20;42.60;;;;;;5137409;27;20463;-43
2022/02/12 09:24:29;;;;;;;6.20;4.50;;;17.50;42.00;;;;;;5134922;28;20179;-45
2022/02/12 09:26:55;;;;;;;8.77;4.77;;;17.80;41.30;;;;;;5135578;28;20216;-43
2022/02/12 09:29:20;;;;;;;8.97;4.93;;;18.20;40.60;;;;;;5135176;28;20171;-45
2022/02/12 09:31:46;;;;;;;7.03;3.80;;;18.50;40.00;;;;;;5136855;28;20208;-41
2022/02/12 09:34:12;;;;;;;5.37;3.87;;;18.90;39.50;;;;;;5135030;28;20179;-43
2022/02/12 09:36:40;;;;;;;6.30;4.00;;;19.30;38.50;;;;;;5118768;28;20213;-42
2022/02/12 09:39:06;;;;;;;7.20;4.47;;;19.50;38.10;;;;;;5134985;28;20420;-42
2022/02/12 09:41:33;;;;;;;7.03;5.10;;;19.90;37.20;;;;;;5137233;28;20403;-44
2022/02/12 09:43:58;;;;;;;6.33;4.20;;;20.20;36.20;;;;;;5135782;28;20417;-44
2022/02/12 09:47:04;;;;;;;6.10;5.00;;;20.20;35.60;;;;;;5136635;28;20443;-43
2022/02/12 09:49:30;;;;;;;8.67;4.30;;;20.60;35.10;;;;;;5120859;28;20223;-44
2022/02/12 09:51:56;;;;;;;6.10;4.40;;;20.90;34.70;;;;;;5136271;28;20508;-45
2022/02/12 09:54:22;;;;;;;6.20;4.57;;;21.20;34.30;;;;;;5116177;28;20187;-42
2022/02/12 09:56:50;;;;;;;7.00;4.07;;;21.60;34.10;;;;;;5136327;28;20429;-44
2022/02/12 09:59:17;;;;;;;7.77;4.77;;;22.00;33.70;;;;;;5134467;28;20185;-45
2022/02/12 10:01:42;;;;;;;6.80;4.57;;;22.30;33.20;;;;;;5115620;28;20445;-45
2022/02/12 10:04:18;;;;;;;5.67;4.40;;;22.60;32.80;;;;;;5130795;28;20523;-42
2022/02/12 10:06:45;;;;;;;6.47;5.27;;;23.00;32.50;;;;;;5133068;28;20183;-42
2022/02/12 10:09:11;;;;;;;7.80;5.27;;;23.40;32.10;;;;;;5133106;28;20760;-42
2022/02/12 10:11:48;;;;;;;8.47;5.17;;;23.70;31.60;;;;;;5135536;28;20486;-42
2022/02/12 10:14:19;;;;;;;7.07;4.20;;;24.00;31.10;;;;;;5134555;28;20456;-42
2022/02/12 10:17:04;;;;;;;4.73;4.17;;;24.20;30.90;;;;;;5133964;28;20862;-43
2022/02/12 10:19:35;;;;;;;6.93;4.50;;;24.40;30.30;;;;;;5132926;28;20461;-45
2022/02/12 10:22:13;;;;;;;5.37;3.40;;;24.70;30.00;;;;;;5116128;28;20434;-45
2022/02/12 10:24:50;;;;;;;5.40;3.97;;;25.00;29.90;;;;;;5107934;28;20450;-45
2022/02/12 10:27:17;;;;;;;5.90;3.67;;;25.30;29.40;;;;;;5135390;28;20418;-44
2022/02/12 10:29:47;;;;;;;6.90;3.80;;;25.60;29.80;;;;;;5135628;27;20439;-44
2022/02/12 10:32:14;;;;;;;3.60;3.10;;;26.10;32.30;;;;;;5139077;27;20467;-45
2022/02/12 10:34:44;;;;;;;3.50;3.20;;;26.50;32.90;;;;;;5137064;27;20426;-44
2022/02/12 10:37:18;;;;;;;5.73;4.30;;;26.80;32.80;;;;;;5139787;27;20424;-44
2022/02/12 10:39:58;;;;;;;7.13;3.10;;;26.90;33.00;;;;;;5138966;27;20431;-45
2022/02/12 10:42:26;;;;;;;6.60;3.73;;;27.20;32.40;;;;;;5138027;27;20548;-42
2022/02/12 10:44:53;;;;;;;6.70;3.53;;;27.30;31.50;;;;;;5127236;27;20426;-43
2022/02/12 10:47:19;;;;;;;6.20;3.33;;;27.50;31.60;;;;;;5138808;27;20435;-46
2022/02/12 10:49:45;;;;;;;8.33;4.03;;;27.60;31.50;;;;;;5107008;28;20408;-44
2022/02/12 10:52:11;;;;;;;4.87;3.30;;;27.90;31.50;;;;;;5129304;27;20454;-44
2022/02/12 10:54:55;;;;;;;7.30;3.43;;;28.20;30.90;;;;;;5136883;27;20432;-43
2022/02/12 10:57:29;;;;;;;4.60;3.93;;;28.20;30.70;;;;;;5109509;28;20447;-43
2022/02/12 10:59:56;;;;;;;10.30;3.87;;;28.40;30.60;;;;;;5137881;27;20922;-43
2022/02/12 11:02:23;;;;;;;4.70;3.50;;;28.50;29.90;;;;;;5131733;27;20554;-43
2022/02/12 11:04:52;;;;;;;5.87;4.00;;;28.60;29.70;;;;;;5100705;28;20472;-41
2022/02/12 11:07:18;;;;;;;6.17;3.50;;;28.80;29.20;;;;;;5100822;28;20727;-42
2022/02/12 11:09:44;;;;;;;5.57;3.77;;;29.20;28.40;;;;;;5116123;28;20423;-43
2022/02/12 11:12:11;;;;;;;3.70;3.30;;;29.40;27.10;;;;;;5099146;28;20452;-43
2022/02/12 11:14:37;;;;;;;5.50;4.50;;;29.60;26.40;;;;;;5123676;27;20534;-42
2022/02/12 11:17:06;;;;;;;6.27;4.20;;;29.50;25.60;;;;;;5138112;27;20505;-44
2022/02/12 11:19:31;;;;;;;5.37;4.00;;;29.60;25.50;;;;;;5127812;27;20743;-44
2022/02/12 11:21:57;;;;;;;5.10;3.87;;;29.80;25.40;;;;;;5133805;27;20460;-42
2022/02/12 11:24:43;;;;;;;5.20;4.00;;;30.00;25.40;;;;;;5120766;27;20637;-46
2022/02/12 11:27:16;;;;;;;7.13;4.83;;;30.10;25.10;;;;;;5136565;27;20179;-43
2022/02/12 11:29:42;;;;;;;5.30;4.03;;;30.10;24.70;;;;;;5136447;27;20695;-43
2022/02/12 11:32:11;;;;;;;5.00;3.87;;;30.30;24.90;;;;;;5115787;27;20774;-41
2022/02/12 11:34:41;;;;;;;5.40;4.20;;;30.50;24.70;;;;;;5138339;27;20507;-45
2022/02/12 11:37:15;;;;;;;6.30;4.60;;;30.60;24.50;;;;;;5137107;27;20416;-42
2022/02/12 11:39:41;;;;;;;4.53;3.90;;;30.80;24.40;;;;;;5137144;27;20418;-42
2022/02/12 11:42:12;;;;;;;5.40;4.27;;;31.00;24.30;;;;;;5137255;27;20530;-44
2022/02/12 11:44:43;;;;;;;4.43;4.03;;;31.00;24.10;;;;;;5140675;27;20190;-46
2022/02/12 11:47:10;;;;;;;4.90;4.23;;;31.20;24.20;;;;;;5121111;27;20432;-42
2022/02/12 11:49:41;;;;;;;6.00;4.23;;;31.20;23.90;;;;;;5139965;27;20826;-44
2022/02/12 11:52:31;;;;;;;4.70;4.20;;;31.40;24.00;;;;;;5138592;27;20435;-44
2022/02/12 11:54:59;;;;;;;6.50;4.00;;;31.40;23.80;;;;;;5120366;27;20402;-43
2022/02/12 11:57:27;;;;;;;5.30;4.47;;;31.70;23.90;;;;;;5135736;27;20520;-44
2022/02/12 12:00:00;;;;;;;4.23;3.83;;;31.90;23.90;;;;;;5137961;27;20414;-46
2022/02/12 12:02:45;;;;;;;6.60;4.50;;;32.00;23.80;;;;;;5137168;27;20474;-43
2022/02/12 12:05:20;;;;;;;4.27;3.73;;;32.10;23.50;;;;;;5138185;27;20413;-42
2022/02/12 12:08:02;;;;;;;4.93;3.70;;;32.20;23.50;;;;;;5136772;27;20427;-43
2022/02/12 12:10:30;;;;;;;4.80;4.40;;;32.50;23.40;;;;;;5137629;27;20403;-43
2022/02/12 12:12:59;;;;;;;4.60;4.20;;;32.60;23.20;;;;;;5135200;27;20658;-42
2022/02/12 12:15:26;;;;;;;4.90;4.10;;;32.70;23.20;;;;;;5138421;27;20409;-44
2022/02/12 12:18:00;;;;;;;4.03;3.63;;;32.90;23.00;;;;;;5136232;27;20447;-44
2022/02/12 12:20:36;;;;;;;4.70;4.13;;;33.10;23.10;;;;;;5136094;27;20708;-41
2022/02/12 12:23:09;;;;;;;4.97;4.40;;;32.90;22.80;;;;;;5133880;27;20420;-42
2022/02/12 12:26:03;;;;;;;4.60;4.20;;;33.10;22.90;;;;;;5138118;27;20740;-44
2022/02/12 12:28:42;;;;;;;4.30;3.47;;;33.00;22.70;;;;;;5119163;27;20760;-42
2022/02/12 12:31:10;;;;;;;5.70;3.73;;;33.10;22.70;;;;;;5137361;27;20432;-42
2022/02/12 12:33:43;;;;;;;4.37;3.20;;;33.30;22.70;;;;;;5136118;27;20437;-43
2022/02/12 12:36:14;;;;;;;3.20;2.90;;;33.50;22.50;;;;;;5138067;27;20456;-44
2022/02/12 12:38:45;;;;;;;4.30;3.00;;;33.60;22.50;;;;;;5136932;27;20765;-43
2022/02/12 12:41:31;;;;;;;4.07;3.27;;;33.70;22.50;;;;;;5138182;27;20864;-42
2022/02/12 12:44:16;;;;;;;4.40;3.00;;;33.70;22.30;;;;;;5135767;27;20394;-43
2022/02/12 12:46:46;;;;;;;3.27;2.63;;;33.90;22.00;;;;;;5138419;27;20430;-43
2022/02/12 12:49:30;;;;;;;5.63;3.40;;;33.90;21.80;;;;;;5118105;27;20860;-44
2022/02/12 12:51:57;;;;;;;2.80;2.33;;;34.40;21.60;;;;;;5136036;27;20424;-43
2022/02/12 12:54:35;;;;;;;3.03;2.23;;;34.40;20.70;;;;;;5137354;27;20446;-44
2022/02/12 12:57:03;;;;;;;3.53;2.50;;;34.40;20.70;;;;;;5136930;27;20387;-44
2022/02/12 12:59:30;;;;;;;2.50;1.97;;;34.60;20.80;;;;;;5134194;27;20868;-43